TimeIST,TemperatureF,Dew PointF,Humidity,Sea Level PressureIn,VisibilityMPH,Wind Direction,Wind SpeedMPH,Gust SpeedMPH,PrecipitationIn,Events,Conditions,WindDirDegrees,DateUTC
6:20 AM,57.2,42.8,59,30.04,6.2,SE,11.5,-,N/A,,Partly Cloudy,130,2013-02-08 04:20:00
6:50 AM,57.2,42.8,59,30.04,6.2,SE,11.5,-,N/A,,Partly Cloudy,130,2013-02-08 04:50:00
7:20 AM,57.2,42.8,59,30.04,6.2,SE,12.7,-,N/A,,Partly Cloudy,130,2013-02-08 05:20:00
7:50 AM,57.2,42.8,59,30.04,6.2,SE,15.0,-,N/A,,Partly Cloudy,130,2013-02-08 05:50:00
8:20 AM,59.0,42.8,55,30.01,6.2,SE,16.1,-,N/A,,Partly Cloudy,130,2013-02-08 06:20:00
9:20 AM,62.6,44.6,52,30.01,6.2,SE,15.0,-,N/A,,Partly Cloudy,130,2013-02-08 07:20:00
9:50 AM,62.6,42.8,48,30.01,6.2,SE,19.6,-,N/A,,Partly Cloudy,130,2013-02-08 07:50:00
10:20 AM,64.4,42.8,45,30.01,6.2,ESE,18.4,-,N/A,,Partly Cloudy,120,2013-02-08 08:20:00
10:50 AM,66.2,44.6,46,29.98,6.2,ESE,17.3,-,N/A,,Partly Cloudy,120,2013-02-08 08:50:00
11:20 AM,68.0,44.6,43,29.98,6.2,ESE,17.3,-,N/A,,Partly Cloudy,120,2013-02-08 09:20:00
11:50 AM,69.8,44.6,40,29.98,6.2,SE,19.6,31.1,N/A,,Partly Cloudy,140,2013-02-08 09:50:00
12:20 PM,69.8,42.8,38,29.95,6.2,SE,19.6,31.1,N/A,,Partly Cloudy,130,2013-02-08 10:20:00
12:50 PM,69.8,42.8,38,29.95,6.2,SE,19.6,-,N/A,,Partly Cloudy,140,2013-02-08 10:50:00
1:20 PM,69.8,44.6,40,29.95,6.2,SE,17.3,-,N/A,,Partly Cloudy,130,2013-02-08 11:20:00
1:50 PM,69.8,44.6,40,29.92,6.2,SE,16.1,-,N/A,,Partly Cloudy,130,2013-02-08 11:50:00
2:50 PM,71.6,44.6,38,29.92,-9999.0,ESE,17.3,-,N/A,,Clear,120,2013-02-08 12:50:00
3:20 PM,71.6,44.6,38,29.92,-9999.0,SE,13.8,-,N/A,,Clear,130,2013-02-08 13:20:00
3:50 PM,71.6,46.4,41,29.92,-9999.0,ESE,12.7,-,N/A,,Clear,120,2013-02-08 13:50:00
4:20 PM,71.6,46.4,41,29.92,-9999.0,ESE,9.2,-,N/A,,Clear,120,2013-02-08 14:20:00
4:50 PM,69.8,46.4,43,29.92,-9999.0,ESE,9.2,-,N/A,,Clear,110,2013-02-08 14:50:00
5:20 PM,68.0,46.4,46,29.92,-9999.0,SE,5.8,-,N/A,,Clear,140,2013-02-08 15:20:00
5:50 PM,68.0,46.4,46,29.92,-9999.0,SE,8.1,-,N/A,,Clear,140,2013-02-08 15:50:00
6:20 PM,66.2,46.4,49,29.95,-9999.0,SSE,6.9,-,N/A,,Clear,150,2013-02-08 16:20:00
6:50 PM,66.2,46.4,49,29.95,-9999.0,SSE,8.1,-,N/A,,Clear,150,2013-02-08 16:50:00